Eglin Air Force Base, FL

2:06 AM CST on November 24, 2014 (GMT -0600)
Eglin Air Force Base | Change Station
CLOSE
Current Station
Airport
Location: Valparaiso,
Elevation: 85 ft
Nearby Weather Stations
Active Advisory: Coastal Hazard Statement

Elev 85 ft 30.48 °N, 86.53 °W | Updated 11 minutes ago

Overcast
Overcast
68 °F
Feels Like 68 °F
N
5
Wind Variable Wind from ESE

Today
High -- | Low -- °F
--% Chance of Precip.
Yesterday
High -- | Low -- °F
Precip. -- in
6:19 AM 4:45 PM
Waxing Crescent, 4% visible
Pressure 29.77 in
Visibility 10.0 miles
Clouds Mostly Cloudy 600 ft
Overcast 1200 ft
Dew Point 66 °F
Humidity 94%
Rainfall 0.00 in
Snow Depth Not available.
UV 0 out of 12
Pollen .40 out of 12
Air Quality Not available.
Flu Activity Not available.
METAR KVPS 240755Z 12004KT 10SM BKN006 OVC012 20/19 A2976 RMK AO2A SLP081 T0005 T01970193 $

More Conditions Fewer Conditions

Pressure 29.77 in
Visibility 10.0 miles
Clouds Mostly Cloudy 600 ft
Overcast 1200 ft
Dew Point 66 °F
Humidity 94%
Rainfall 0.00 in
Snow Depth Not available.
UV 0 out of 12
Pollen .40 out of 12
Air Quality Not available.
Flu Activity Not available.
METAR KVPS 240755Z 12004KT 10SM BKN006 OVC012 20/19 A2976 RMK AO2A SLP081 T0005 T01970193 $

More Conditions Fewer Conditions

10-Day Weather Forecast

Almanac

Astronomy

Nov. 24, 2014 Rise Set
Actual Time
Civil Twilight
Nautical Twilight
Astronomical Twilight
Moon
Length of Visible Light
Length of Day
Tomorrow will be .
, % of the Moon is Illuminated

Today's Extremes

State Highs State Lows

Community

WunderPhotos

Upload Photos

1,773,295 photos uploaded!

WunderBlogs® & News

Nearby

Air Quality

  Air Quality AQ Index Pollutant
Not available.

Snow Depth

Station Depth Elevation

Earthquake Activity

City Distance Mag. Time & Date
Minimum magnitude displayed is 2.5.

Coastal Water Temperatures

Place Temperature

Nearby Weather Stations